Time;durP1;ratioP1;P1;durP2;ratioP2;P2;SDS_P1;SDS_P2;PMS_P1;PMS_P2;Temp;Humidity;BMP_temperature;BMP_pressure;BME280_temperature;BME280_humidity;BME280_pressure;Samples;Min_cycle;Max_cycle;Signal;HPM_P1;HPM_P2
2022/03/14 00:03:17;;;;;;;53.40;28.20;;;;;;;3.72;44.56;100175.17;232906;1219;139589;-60
2022/03/14 00:08:24;;;;;;;53.60;27.50;;;;;;;3.65;44.79;100173.70;233256;1219;140899;-62
2022/03/14 00:13:28;;;;;;;49.20;26.00;;;;;;;3.61;44.92;100172.70;233351;1220;141883;-60
2022/03/14 00:18:32;;;;;;;53.80;28.20;;;;;;;3.55;44.88;100171.73;233189;1219;137994;-62
2022/03/14 00:23:36;;;;;;;52.50;27.10;;;;;;;3.51;44.85;100175.14;233215;1219;138990;-64
2022/03/14 00:28:39;;;;;;;46.00;25.60;;;;;;;3.47;45.16;100180.29;233280;1218;138903;-61
2022/03/14 00:33:42;;;;;;;49.40;27.60;;;;;;;3.39;45.07;100176.54;233196;1219;139228;-61
2022/03/14 00:38:46;;;;;;;50.70;27.70;;;;;;;3.32;45.36;100176.99;233175;1218;139299;-61
2022/03/14 00:43:49;;;;;;;53.70;28.10;;;;;;;3.25;45.52;100179.73;233338;1218;139133;-64
2022/03/14 00:48:52;;;;;;;50.50;27.00;;;;;;;3.20;45.77;100182.59;233269;1218;139595;-63
2022/03/14 00:53:55;;;;;;;49.50;25.50;;;;;;;3.16;45.94;100177.57;233252;1219;138914;-63
2022/03/14 00:59:01;;;;;;;50.20;26.50;;;;;;;3.11;45.90;100184.48;233280;1219;138959;-61
2022/03/14 01:04:04;;;;;;;;;;;;;;;3.04;46.11;100189.84;233301;1218;138761;-63
2022/03/14 01:09:07;;;;;;;49.40;26.80;;;;;;;2.94;46.27;100192.57;233304;1218;125374;-60
2022/03/14 01:14:11;;;;;;;43.00;26.00;;;;;;;2.89;46.46;100196.84;233356;1219;139705;-63
2022/03/14 01:19:19;;;;;;;50.00;25.90;;;;;;;2.86;46.59;100197.06;233178;1219;138148;-60
2022/03/14 01:24:24;;;;;;;48.00;26.80;;;;;;;2.83;46.59;100196.22;233203;1219;139186;-61
2022/03/14 01:29:28;;;;;;;48.30;26.70;;;;;;;2.80;46.70;100191.16;233312;1217;138164;-65
2022/03/14 01:34:31;;;;;;;50.90;25.90;;;;;;;2.75;46.98;100193.69;233296;1218;138582;-63
2022/03/14 01:39:34;;;;;;;49.50;25.90;;;;;;;2.68;46.97;100196.22;233278;1218;139017;-64
2022/03/14 01:44:37;;;;;;;44.60;25.70;;;;;;;2.63;47.10;100201.36;233135;1219;138701;-63
2022/03/14 01:49:41;;;;;;;47.10;25.80;;;;;;;2.60;47.26;100209.96;233373;1219;141284;-63
2022/03/14 01:54:44;;;;;;;45.60;24.70;;;;;;;2.58;47.45;100209.30;233134;1219;139052;-62
2022/03/14 01:59:49;;;;;;;45.10;25.30;;;;;;;2.55;47.59;100210.90;233308;1218;138730;-62
2022/03/14 02:04:55;;;;;;;47.40;25.20;;;;;;;2.51;47.54;100217.07;233011;1217;140001;-63
2022/03/14 02:09:59;;;;;;;46.70;25.30;;;;;;;2.45;47.72;100218.89;233267;1220;138745;-64
2022/03/14 02:15:02;;;;;;;50.20;25.90;;;;;;;2.39;47.83;100223.14;233290;1219;138801;-66
2022/03/14 02:20:05;;;;;;;44.30;25.90;;;;;;;2.35;48.01;100220.90;233304;1219;139144;-68
2022/03/14 02:25:10;;;;;;;48.20;27.10;;;;;;;2.30;48.11;100230.05;233251;1219;140661;-66
2022/03/14 02:30:13;;;;;;;44.70;25.60;;;;;;;2.26;48.27;100235.71;233268;1220;139756;-63
2022/03/14 02:35:18;;;;;;;44.40;25.70;;;;;;;2.20;48.41;100235.58;233178;1219;138906;-66
2022/03/14 02:40:22;;;;;;;49.90;26.30;;;;;;;2.14;48.52;100237.20;233360;1219;140302;-62
2022/03/14 02:45:25;;;;;;;49.10;25.80;;;;;;;2.10;48.72;100240.73;233237;1220;138684;-63
2022/03/14 02:50:29;;;;;;;48.90;27.30;;;;;;;2.05;48.69;100242.52;233206;1220;138416;-63
2022/03/14 02:55:33;;;;;;;55.70;27.70;;;;;;;2.00;48.83;100241.17;233218;1218;138640;-62
2022/03/14 03:00:36;;;;;;;51.40;27.40;;;;;;;1.94;48.83;100243.14;232987;1220;138624;-63
2022/03/14 03:05:43;;;;;;;50.50;27.00;;;;;;;1.84;48.87;100244.26;233183;1219;139815;-68
2022/03/14 03:10:47;;;;;;;52.20;28.20;;;;;;;1.77;49.09;100247.29;233300;1219;138721;-67
2022/03/14 03:15:50;;;;;;;52.90;27.80;;;;;;;1.69;49.32;100248.40;233267;1219;138443;-66
2022/03/14 03:20:53;;;;;;;53.40;28.90;;;;;;;1.63;49.49;100254.55;233195;1219;138973;-65
2022/03/14 03:25:56;;;;;;;50.30;27.40;;;;;;;1.56;49.52;100262.11;233180;1220;138708;-65
2022/03/14 03:30:59;;;;;;;52.50;28.50;;;;;;;1.49;49.63;100266.52;233243;1219;139168;-63
2022/03/14 03:36:04;;;;;;;56.60;28.00;;;;;;;1.45;49.89;100272.31;233122;1219;138863;-62
2022/03/14 03:41:07;;;;;;;60.90;27.70;;;;;;;1.42;50.06;100278.62;233183;1219;138530;-63
2022/03/14 03:46:10;;;;;;;60.00;29.20;;;;;;;1.41;50.17;100284.39;233424;1219;139310;-63
2022/03/14 03:51:13;;;;;;;59.60;28.50;;;;;;;1.38;50.15;100288.60;233256;1219;138716;-63
2022/03/14 03:56:16;;;;;;;58.20;30.80;;;;;;;1.38;50.27;100290.88;233232;1219;138959;-62
2022/03/14 04:01:22;;;;;;;57.40;29.40;;;;;;;1.36;50.23;100292.29;233195;1220;139323;-65
2022/03/14 04:06:28;;;;;;;56.00;29.90;;;;;;;1.30;50.33;100297.56;233247;1218;142931;-65
2022/03/14 04:11:31;;;;;;;68.50;30.20;;;;;;;1.24;50.50;100305.97;233151;1219;139780;-64
2022/03/14 04:16:34;;;;;;;54.40;30.10;;;;;;;1.20;50.50;100308.08;233326;1219;139073;-62
2022/03/14 04:21:39;;;;;;;67.50;30.20;;;;;;;1.11;50.50;100312.84;233260;1219;138744;-61
2022/03/14 04:26:42;;;;;;;63.40;30.00;;;;;;;1.05;50.75;100316.00;233173;1219;139310;-64
2022/03/14 04:31:44;;;;;;;63.60;31.50;;;;;;;0.99;50.86;100318.11;233209;1219;139169;-62
2022/03/14 04:36:50;;;;;;;60.50;30.30;;;;;;;0.91;50.83;100320.58;233123;1219;139404;-64
2022/03/14 04:41:54;;;;;;;80.70;42.90;;;;;;;0.87;51.41;100319.02;233204;1219;139982;-63
2022/03/14 04:46:57;;;;;;;60.70;32.30;;;;;;;0.94;51.51;100324.07;233097;1220;140585;-63
2022/03/14 04:52:00;;;;;;;56.10;29.30;;;;;;;0.92;51.35;100330.36;233571;1219;139430;-63
2022/03/14 04:57:03;;;;;;;53.60;27.90;;;;;;;0.88;51.46;100332.29;233030;1219;138762;-63
2022/03/14 05:02:06;;;;;;;532.40;358.00;;;;;;;0.83;51.65;100334.73;233235;1219;139717;-63
2022/03/14 05:07:09;;;;;;;82.70;43.10;;;;;;;0.90;52.13;100337.35;233170;1219;139103;-62
2022/03/14 05:12:12;;;;;;;56.20;31.60;;;;;;;0.94;51.85;100342.93;233252;1219;138984;-62
2022/03/14 05:17:16;;;;;;;52.00;29.40;;;;;;;0.93;51.60;100346.42;233286;1220;140578;-62
2022/03/14 05:22:20;;;;;;;55.90;30.90;;;;;;;0.87;51.64;100350.46;233353;1218;139221;-62
2022/03/14 05:27:25;;;;;;;54.80;30.70;;;;;;;0.79;51.84;100356.23;233194;1218;138907;-61
2022/03/14 05:32:29;;;;;;;54.80;30.30;;;;;;;0.75;51.92;100359.56;233199;1219;139572;-62
2022/03/14 05:37:33;;;;;;;61.30;32.80;;;;;;;0.70;51.96;100359.04;233274;1219;138353;-62
2022/03/14 05:42:36;;;;;;;56.10;31.20;;;;;;;0.69;52.30;100361.84;233161;1219;140573;-62
2022/03/14 05:47:39;;;;;;;56.40;30.20;;;;;;;0.68;52.27;100360.96;233191;1219;138921;-63
2022/03/14 05:52:42;;;;;;;56.50;30.10;;;;;;;0.68;52.50;100359.23;233372;1218;140049;-61
2022/03/14 05:57:46;;;;;;;55.30;29.00;;;;;;;0.71;52.47;100361.48;233214;1218;138703;-62
2022/03/14 06:02:50;;;;;;;53.50;29.60;;;;;;;0.74;52.61;100355.36;233194;1219;139087;-64
2022/03/14 06:07:53;;;;;;;49.30;28.70;;;;;;;0.78;52.86;100360.61;233245;1219;138666;-60
2022/03/14 06:12:56;;;;;;;51.90;28.60;;;;;;;0.86;52.83;100363.56;233166;1218;139010;-62
2022/03/14 06:17:59;;;;;;;50.50;27.60;;;;;;;0.94;52.87;100370.02;233187;1219;138848;-63
2022/03/14 06:23:02;;;;;;;53.80;28.70;;;;;;;1.03;53.02;100373.14;233237;1219;140558;-61
2022/03/14 06:28:05;;;;;;;51.40;28.80;;;;;;;1.13;53.03;100375.05;233186;1219;139206;-62
2022/03/14 06:33:08;;;;;;;53.30;28.70;;;;;;;1.22;52.90;100377.30;233016;1220;138604;-63
2022/03/14 06:38:12;;;;;;;52.70;28.50;;;;;;;1.31;53.11;100380.08;233168;1218;139376;-62
2022/03/14 06:43:17;;;;;;;52.20;29.30;;;;;;;1.40;52.91;100381.44;233265;1219;138778;-62
2022/03/14 06:48:21;;;;;;;58.60;29.70;;;;;;;1.48;52.90;100384.21;233162;1219;139140;-62
2022/03/14 06:53:24;;;;;;;56.90;29.80;;;;;;;1.58;53.16;100381.20;233226;1219;138909;-62
2022/03/14 06:58:27;;;;;;;57.50;29.70;;;;;;;1.70;53.23;100387.27;233322;1219;138291;-62
2022/03/14 07:03:30;;;;;;;55.30;29.90;;;;;;;1.82;53.19;100391.08;233206;1219;138611;-61
2022/03/14 07:08:33;;;;;;;55.90;29.40;;;;;;;1.95;53.13;100393.11;233195;1219;138831;-61
2022/03/14 07:13:36;;;;;;;53.80;29.00;;;;;;;2.08;53.09;100393.91;233198;1219;139039;-62
2022/03/14 07:18:39;;;;;;;52.00;28.60;;;;;;;2.23;53.12;100397.48;233244;1219;139316;-60
2022/03/14 07:23:42;;;;;;;47.00;27.40;;;;;;;2.40;53.14;100396.69;233095;1219;139018;-61
2022/03/14 07:28:47;;;;;;;50.10;28.20;;;;;;;2.57;52.95;100396.04;233245;1219;139006;-62
2022/03/14 07:33:52;;;;;;;50.40;28.10;;;;;;;2.74;52.91;100403.45;233135;1219;138890;-61
2022/03/14 07:38:56;;;;;;;49.50;27.60;;;;;;;2.89;52.65;100402.80;233167;1219;141349;-61
2022/03/14 07:44:03;;;;;;;45.60;26.10;;;;;;;3.04;52.68;100402.65;233143;1219;139497;-61
2022/03/14 07:49:08;;;;;;;252.00;119.90;;;;;;;3.22;52.70;100403.17;233083;1219;138846;-63
2022/03/14 07:54:10;;;;;;;59.60;33.30;;;;;;;3.45;52.69;100404.16;233147;1219;139028;-61
2022/03/14 07:59:13;;;;;;;54.50;28.00;;;;;;;3.65;52.15;100406.91;233076;1218;138640;-62
2022/03/14 08:04:16;;;;;;;49.50;25.70;;;;;;;3.83;52.25;100409.16;233345;1219;139337;-62
2022/03/14 08:09:21;;;;;;;54.40;25.90;;;;;;;3.99;51.87;100412.28;233113;1218;139112;-62
2022/03/14 08:14:24;;;;;;;48.70;26.90;;;;;;;4.16;51.70;100411.02;232376;1218;139446;-62
2022/03/14 08:19:27;;;;;;;63.70;32.40;;;;;;;4.33;51.55;100409.70;233224;1219;139245;-62
2022/03/14 08:24:30;;;;;;;51.20;28.30;;;;;;;4.50;51.26;100406.82;233158;1219;139565;-63
2022/03/14 08:29:33;;;;;;;54.10;27.90;;;;;;;4.68;51.18;100410.23;233169;1219;139291;-62
2022/03/14 08:34:37;;;;;;;44.10;25.10;;;;;;;4.87;51.17;100405.88;233328;1219;139415;-63
2022/03/14 08:39:40;;;;;;;47.50;25.30;;;;;;;5.05;50.56;100404.87;233733;1219;138324;-63
2022/03/14 08:44:42;;;;;;;49.10;27.20;;;;;;;5.21;49.81;100403.54;233668;1218;138762;-63
2022/03/14 08:49:45;;;;;;;89.90;53.40;;;;;;;5.38;49.68;100402.15;233720;1218;138827;-63
2022/03/14 08:54:48;;;;;;;71.20;38.80;;;;;;;5.67;49.90;100395.96;233727;1219;139577;-62
2022/03/14 08:59:52;;;;;;;48.60;27.60;;;;;;;5.94;49.14;100392.42;233706;1218;139032;-61
2022/03/14 09:04:55;;;;;;;52.10;27.60;;;;;;;6.14;48.68;100395.34;233723;1219;141442;-62
2022/03/14 09:10:15;;;;;;;48.50;27.70;;;;;;;6.30;48.30;100396.21;233855;1219;139185;-62
2022/03/14 09:15:22;;;;;;;49.90;26.80;;;;;;;6.48;47.87;100397.56;233665;1218;138851;-61
2022/03/14 09:20:27;;;;;;;46.90;26.70;;;;;;;6.65;47.60;100401.04;233743;1219;138996;-62
2022/03/14 09:25:30;;;;;;;53.20;26.30;;;;;;;6.84;47.48;100401.66;233698;1219;138869;-63
2022/03/14 09:30:33;;;;;;;53.40;27.80;;;;;;;7.05;47.00;100398.83;233675;1219;138417;-62
2022/03/14 09:35:36;;;;;;;51.20;26.80;;;;;;;7.26;46.92;100391.39;233684;1219;139074;-63
2022/03/14 09:40:43;;;;;;;46.20;25.50;;;;;;;7.45;46.88;100393.17;233858;1219;139059;-61
2022/03/14 09:45:50;;;;;;;45.50;24.90;;;;;;;7.66;46.83;100395.96;233218;1219;138328;-61
2022/03/14 09:50:55;;;;;;;43.90;23.20;;;;;;;7.85;46.62;100394.34;233681;1218;139293;-62
2022/03/14 09:55:59;;;;;;;47.30;24.10;;;;;;;8.04;46.31;100384.40;233556;1219;138678;-62
2022/03/14 10:01:03;;;;;;;44.70;23.50;;;;;;;8.24;46.08;100385.40;233656;1218;138449;-63
2022/03/14 10:06:06;;;;;;;43.00;22.30;;;;;;;8.47;45.60;100384.52;233701;1218;139013;-62
2022/03/14 10:11:10;;;;;;;39.60;21.20;;;;;;;8.72;45.35;100381.77;233759;1217;138449;-61
2022/03/14 10:16:16;;;;;;;408.60;212.90;;;;;;;8.99;45.23;100379.46;233792;1219;138915;-62
2022/03/14 10:21:41;;;;;;;62.50;31.70;;;;;;;9.29;44.76;100373.63;233760;1219;139377;-62
2022/03/14 10:26:45;;;;;;;39.90;21.10;;;;;;;9.57;44.49;100373.34;233693;1219;139604;-63
2022/03/14 10:31:56;;;;;;;43.50;20.40;;;;;;;9.83;43.91;100372.05;233727;1218;140387;-62
2022/03/14 10:36:59;;;;;;;40.70;20.40;;;;;;;10.17;43.51;100365.59;233700;1219;138999;-63
2022/03/14 10:42:07;;;;;;;39.50;20.90;;;;;;;10.50;42.78;100361.63;233748;1219;140505;-63
2022/03/14 10:47:26;;;;;;;32.80;18.90;;;;;;;10.84;42.39;100358.80;233618;1219;139274;-63
2022/03/14 10:52:29;;;;;;;36.00;18.90;;;;;;;11.17;42.21;100354.95;233794;1219;138938;-62
2022/03/14 10:57:32;;;;;;;604.30;440.70;;;;;;;11.54;42.82;100354.55;233622;1219;139299;-62
2022/03/14 11:02:35;;;;;;;49.00;28.40;;;;;;;12.75;43.20;100344.95;233736;1218;139768;-62
2022/03/14 11:07:40;;;;;;;30.70;18.60;;;;;;;12.93;41.11;100339.38;233719;1219;139307;-62
2022/03/14 11:12:44;;;;;;;27.80;16.00;;;;;;;12.88;40.24;100330.94;233799;1218;139119;-62
2022/03/14 11:17:49;;;;;;;32.50;16.00;;;;;;;12.84;39.42;100332.36;233689;1219;138840;-62
2022/03/14 11:23:09;;;;;;;25.90;15.40;;;;;;;12.81;39.04;100322.52;233776;1218;139943;-63
2022/03/14 11:28:17;;;;;;;112.90;60.90;;;;;;;13.16;40.84;100315.39;233766;1219;139691;-62
2022/03/14 11:33:20;;;;;;;57.50;32.20;;;;;;;14.70;42.57;100306.90;233699;1219;139377;-62
2022/03/14 11:38:23;;;;;;;50.70;26.00;;;;;;;15.85;40.60;100304.75;233587;1219;139367;-62
2022/03/14 11:43:27;;;;;;;28.90;12.80;;;;;;;16.43;38.76;100289.55;232771;1219;138876;-62
2022/03/14 11:48:32;;;;;;;22.20;12.90;;;;;;;16.17;36.31;100288.91;233785;1219;139783;-60
2022/03/14 11:53:48;;;;;;;19.70;11.70;;;;;;;15.79;35.56;100288.08;233530;1219;139549;-62
2022/03/14 11:58:50;;;;;;;22.10;12.00;;;;;;;15.51;35.08;100290.77;233872;1219;138765;-62
2022/03/14 12:03:56;;;;;;;18.10;10.80;;;;;;;15.35;35.12;100289.01;233764;1219;139887;-63
2022/03/14 12:09:00;;;;;;;17.20;10.60;;;;;;;15.37;34.81;100290.55;233790;1219;139379;-62
2022/03/14 12:14:04;;;;;;;18.00;10.70;;;;;;;15.45;34.72;100282.38;233838;1218;140292;-61
2022/03/14 12:19:46;;;;;;;15.50;10.10;;;;;;;15.52;34.14;100277.80;233814;1219;140566;-61
2022/03/14 12:24:49;;;;;;;19.10;10.50;;;;;;;15.70;34.15;100262.75;233704;1219;139393;-61
2022/03/14 12:29:57;;;;;;;21.50;11.90;;;;;;;15.91;33.88;100259.79;233677;1219;139334;-62
2022/03/14 12:35:01;;;;;;;15.40;9.80;;;;;;;16.01;33.30;100255.42;233719;1219;139010;-61
2022/03/14 12:40:06;;;;;;;17.50;10.20;;;;;;;15.99;33.44;100246.77;234005;1219;139234;-61
2022/03/14 12:45:17;;;;;;;16.00;10.30;;;;;;;15.99;32.73;100245.84;233897;1219;139678;-63
2022/03/14 12:50:42;;;;;;;15.70;10.10;;;;;;;16.00;32.44;100247.78;233815;1219;139369;-63
2022/03/14 12:55:46;;;;;;;16.10;10.10;;;;;;;15.95;32.36;100240.55;233719;1219;139355;-63
2022/03/14 13:00:50;;;;;;;13.10;8.90;;;;;;;15.97;32.32;100243.15;233854;1218;138985;-63
2022/03/14 13:06:00;;;;;;;21.60;9.30;;;;;;;15.96;31.67;100243.91;233854;1219;140934;-63
2022/03/14 13:11:06;;;;;;;16.70;8.00;;;;;;;16.11;31.97;100237.91;233829;1219;139098;-62
2022/03/14 13:16:12;;;;;;;15.50;8.70;;;;;;;16.29;31.67;100228.48;233855;1219;139130;-61
2022/03/14 13:21:32;;;;;;;14.90;7.70;;;;;;;16.54;31.62;100229.34;233803;1218;139377;-63
2022/03/14 13:26:38;;;;;;;12.10;8.30;;;;;;;16.73;31.47;100222.43;233772;1219;139382;-62
2022/03/14 13:31:49;;;;;;;11.50;7.90;;;;;;;17.01;31.21;100217.11;233834;1219;139016;-63
2022/03/14 13:36:52;;;;;;;13.10;8.50;;;;;;;17.28;30.87;100218.44;233878;1219;138853;-62
2022/03/14 13:41:58;;;;;;;12.10;8.10;;;;;;;17.54;31.02;100213.39;233839;1219;139198;-61
2022/03/14 13:47:02;;;;;;;12.40;7.80;;;;;;;17.81;30.76;100220.07;233763;1219;138925;-60
2022/03/14 13:52:13;;;;;;;15.50;8.70;;;;;;;17.89;29.98;100216.96;233937;1219;138807;-62
2022/03/14 13:57:22;;;;;;;13.50;8.70;;;;;;;17.54;29.74;100214.59;233779;1219;138735;-61
2022/03/14 14:02:32;;;;;;;18.50;8.60;;;;;;;17.02;29.27;100225.16;233642;1219;139975;-62
2022/03/14 14:07:49;;;;;;;16.20;8.60;;;;;;;16.50;29.25;100226.54;233770;1218;139535;-60
2022/03/14 14:13:03;;;;;;;13.90;7.40;;;;;;;16.01;29.22;100225.28;233711;1219;141304;-60
2022/03/14 14:18:17;;;;;;;14.90;7.30;;;;;;;15.64;29.46;100227.51;233745;1217;138759;-61
2022/03/14 14:23:22;;;;;;;16.40;8.00;;;;;;;15.36;29.57;100229.29;233739;1218;138964;-61
2022/03/14 14:28:39;;;;;;;16.80;7.50;;;;;;;15.10;29.62;100226.08;233847;1219;141536;-61
2022/03/14 14:33:45;;;;;;;20.20;8.50;;;;;;;14.85;29.62;100222.80;233741;1218;138516;-61
2022/03/14 14:38:49;;;;;;;17.20;7.80;;;;;;;14.67;29.83;100226.19;233719;1219;139177;-61
2022/03/14 14:43:52;;;;;;;18.30;8.50;;;;;;;14.55;29.91;100235.30;233615;1219;138756;-61
2022/03/14 14:48:57;;;;;;;14.60;7.80;;;;;;;14.41;30.06;100238.06;233761;1219;139388;-61
2022/03/14 14:54:00;;;;;;;16.60;8.30;;;;;;;14.25;29.88;100235.39;233753;1219;140039;-61
2022/03/14 14:59:03;;;;;;;20.20;8.40;;;;;;;14.13;29.96;100241.83;233716;1219;138591;-63
2022/03/14 15:04:06;;;;;;;19.90;8.50;;;;;;;14.02;30.06;100241.02;233879;1219;139504;-66
2022/03/14 15:09:09;;;;;;;15.40;8.30;;;;;;;13.93;30.46;100241.13;233687;1219;139579;-61
2022/03/14 15:14:14;;;;;;;18.00;8.90;;;;;;;13.90;30.41;100246.49;233114;1219;140415;-59
2022/03/14 15:19:17;;;;;;;23.00;10.00;;;;;;;13.82;30.55;100246.63;233744;1219;139249;-60
2022/03/14 15:24:21;;;;;;;24.30;10.00;;;;;;;13.73;30.58;100248.53;233740;1219;142812;-60
2022/03/14 15:29:25;;;;;;;29.90;11.00;;;;;;;13.68;30.55;100248.09;233708;1219;139636;-60
2022/03/14 15:34:28;;;;;;;21.70;11.10;;;;;;;13.60;30.56;100246.74;233875;1219;139175;-60
2022/03/14 15:39:31;;;;;;;16.30;10.20;;;;;;;13.54;30.49;100256.36;233800;1219;138620;-60
2022/03/14 15:44:35;;;;;;;23.00;11.00;;;;;;;13.49;30.66;100262.31;233756;1219;140526;-60
2022/03/14 15:49:37;;;;;;;21.50;11.70;;;;;;;13.44;30.69;100258.51;233787;1219;139946;-61
2022/03/14 15:54:42;;;;;;;18.30;9.90;;;;;;;13.38;30.48;100253.09;233781;1219;139186;-60
2022/03/14 15:59:46;;;;;;;16.80;10.00;;;;;;;13.34;30.95;100249.77;233460;1218;138721;-59
2022/03/14 16:04:49;;;;;;;17.00;8.90;;;;;;;13.26;30.73;100250.58;233879;1219;139018;-59
2022/03/14 16:09:53;;;;;;;14.60;8.40;;;;;;;13.17;30.69;100259.23;233615;1219;139907;-59
2022/03/14 16:14:56;;;;;;;17.50;9.20;;;;;;;13.08;30.53;100263.23;233724;1219;139011;-59
2022/03/14 16:20:00;;;;;;;14.80;9.80;;;;;;;12.99;30.66;100260.69;233830;1219;138983;-61
2022/03/14 16:25:04;;;;;;;19.50;10.30;;;;;;;12.88;30.46;100269.30;233729;1219;139060;-61
2022/03/14 16:30:07;;;;;;;21.70;11.50;;;;;;;12.76;30.72;100274.00;233806;1219;139408;-59
2022/03/14 16:35:10;;;;;;;24.90;11.30;;;;;;;12.67;30.62;100271.98;233738;1219;138984;-60
2022/03/14 16:40:13;;;;;;;48.60;27.30;;;;;;;12.59;30.59;100267.77;233837;1219;141120;-58
2022/03/14 16:45:18;;;;;;;19.40;11.30;;;;;;;12.47;30.70;100277.79;233609;1219;139223;-62
2022/03/14 16:50:21;;;;;;;23.50;11.30;;;;;;;12.38;30.47;100282.86;233694;1219;139402;-60
2022/03/14 16:55:25;;;;;;;25.80;12.50;;;;;;;12.33;30.65;100285.44;233526;1219;233706;-60
2022/03/14 17:00:28;;;;;;;27.90;12.00;;;;;;;12.25;30.88;100287.26;233686;1219;139597;-59
2022/03/14 17:05:32;;;;;;;23.60;12.50;;;;;;;12.15;30.93;100289.70;233611;1219;139841;-59
2022/03/14 17:10:35;;;;;;;26.00;14.20;;;;;;;12.04;31.13;100293.21;233541;1218;139359;-59
2022/03/14 17:15:40;;;;;;;26.30;14.60;;;;;;;11.94;31.14;100293.38;233697;1219;139280;-59
2022/03/14 17:20:43;;;;;;;24.00;13.80;;;;;;;11.79;31.15;100292.61;233705;1219;139616;-59
2022/03/14 17:25:50;;;;;;;33.80;13.10;;;;;;;11.61;31.20;100296.44;233625;1219;139417;-59
2022/03/14 17:30:53;;;;;;;22.30;10.00;;;;;;;11.46;31.38;100298.05;233700;1219;139393;-59
2022/03/14 17:35:56;;;;;;;30.90;11.30;;;;;;;11.40;31.22;100306.10;233349;1218;140613;-61
2022/03/14 17:40:59;;;;;;;21.30;10.50;;;;;;;11.38;30.94;100304.25;233063;1220;139742;-62
2022/03/14 17:46:04;;;;;;;27.70;11.60;;;;;;;11.37;31.15;100307.69;233173;1219;139583;-62
2022/03/14 17:51:07;;;;;;;27.00;12.30;;;;;;;11.34;30.68;100309.96;233052;1218;138857;-62
2022/03/14 17:56:11;;;;;;;28.30;12.80;;;;;;;11.30;31.03;100317.77;232965;1218;139604;-61
2022/03/14 18:01:14;;;;;;;27.00;12.10;;;;;;;11.24;30.94;100328.70;233240;1219;141488;-63
2022/03/14 18:06:18;;;;;;;38.80;13.40;;;;;;;11.17;31.13;100340.02;233076;1220;139333;-62
2022/03/14 18:11:21;;;;;;;26.10;12.00;;;;;;;11.08;31.10;100350.17;233198;1219;140076;-62
2022/03/14 18:16:24;;;;;;;27.90;12.30;;;;;;;11.07;31.27;100350.74;233241;1219;139711;-63
2022/03/14 18:21:27;;;;;;;41.20;23.80;;;;;;;11.04;30.80;100347.84;233074;1219;140134;-61
2022/03/14 18:26:30;;;;;;;28.00;13.30;;;;;;;11.09;31.30;100354.91;233080;1219;139097;-62
2022/03/14 18:31:33;;;;;;;23.70;12.50;;;;;;;11.18;30.55;100357.75;233080;1219;138913;-60
2022/03/14 18:36:36;;;;;;;29.30;14.40;;;;;;;11.24;30.82;100359.07;233018;1219;139623;-64
2022/03/14 18:41:53;;;;;;;31.50;14.90;;;;;;;11.22;30.77;100362.02;233081;1219;142490;-63
2022/03/14 18:46:56;;;;;;;38.00;16.30;;;;;;;11.07;31.19;100371.35;233202;1218;139567;-62
2022/03/14 18:51:59;;;;;;;40.50;16.40;;;;;;;10.84;31.39;100382.98;233150;1220;139750;-63
2022/03/14 18:57:03;;;;;;;43.10;16.00;;;;;;;10.53;31.83;100397.71;233103;1217;139610;-62
2022/03/14 19:02:07;;;;;;;49.10;15.70;;;;;;;10.17;32.36;100410.61;233144;1218;139859;-63
2022/03/14 19:07:11;;;;;;;41.20;15.40;;;;;;;9.87;32.65;100418.50;232989;1219;141573;-60
2022/03/14 19:12:15;;;;;;;39.10;16.20;;;;;;;9.59;32.95;100421.48;233035;1219;139364;-59
2022/03/14 19:17:18;;;;;;;41.30;16.30;;;;;;;9.30;33.12;100427.44;233038;1219;140003;-60
2022/03/14 19:22:21;;;;;;;73.70;38.20;;;;;;;9.07;33.46;100430.00;233219;1219;139306;-63
2022/03/14 19:27:25;;;;;;;51.80;22.10;;;;;;;8.86;34.22;100438.30;233047;1220;138902;-63
2022/03/14 19:32:28;;;;;;;41.60;17.20;;;;;;;8.67;34.58;100450.23;233063;1220;138488;-63
2022/03/14 19:37:32;;;;;;;46.20;17.60;;;;;;;8.44;34.82;100453.77;233058;1219;139276;-65
2022/03/14 19:42:38;;;;;;;33.60;16.00;;;;;;;8.23;35.19;100455.61;232996;1218;138698;-63
2022/03/14 19:47:42;;;;;;;37.30;17.20;;;;;;;8.05;35.27;100461.63;232963;1220;139034;-65
2022/03/14 19:52:46;;;;;;;45.30;17.20;;;;;;;7.91;35.68;100466.97;233131;1220;139220;-64
2022/03/14 19:57:50;;;;;;;44.40;18.00;;;;;;;7.79;35.90;100472.58;233014;1220;138877;-65
2022/03/14 20:02:53;;;;;;;41.20;22.10;;;;;;;7.78;35.72;100474.39;233060;1218;139178;-65
2022/03/14 20:07:57;;;;;;;84.50;48.00;;;;;;;8.00;35.31;100484.20;233005;1219;138981;-67
2022/03/14 20:13:02;;;;;;;50.00;24.80;;;;;;;8.34;35.09;100485.19;233127;1217;139142;-63
2022/03/14 20:18:05;;;;;;;45.40;24.80;;;;;;;8.57;34.26;100486.81;233031;1220;139416;-65
2022/03/14 20:23:10;;;;;;;50.70;24.70;;;;;;;8.72;33.79;100490.58;233065;1220;141252;-64
2022/03/14 20:28:14;;;;;;;48.20;25.90;;;;;;;8.81;33.54;100493.50;233173;1219;139840;-64
2022/03/14 20:33:17;;;;;;;47.30;24.50;;;;;;;8.84;33.23;100495.70;233200;1219;139128;-65
2022/03/14 20:38:20;;;;;;;51.50;25.30;;;;;;;8.89;33.04;100499.98;233090;1219;138863;-64
2022/03/14 20:43:23;;;;;;;44.10;24.80;;;;;;;8.93;32.82;100500.36;233115;1219;139054;-64
2022/03/14 20:48:29;;;;;;;50.70;26.10;;;;;;;8.98;32.60;100494.91;233057;1219;139065;-64
2022/03/14 20:53:33;;;;;;;233.50;172.30;;;;;;;8.97;32.82;100497.06;233129;1219;140012;-64
2022/03/14 20:58:37;;;;;;;50.70;29.60;;;;;;;8.93;33.44;100501.62;233190;1219;139285;-63
2022/03/14 21:03:41;;;;;;;48.80;26.70;;;;;;;8.71;33.51;100505.13;233150;1218;139161;-64
2022/03/14 21:08:45;;;;;;;58.10;29.00;;;;;;;8.47;33.77;100504.27;232976;1218;139254;-63
2022/03/14 21:13:53;;;;;;;63.00;31.70;;;;;;;8.21;34.22;100503.92;233038;1219;138892;-62
2022/03/14 21:18:56;;;;;;;73.90;34.20;;;;;;;8.06;34.83;100501.55;233106;1218;138951;-61
2022/03/14 21:23:59;;;;;;;88.70;42.70;;;;;;;7.82;35.29;100495.49;233152;1218;138626;-63
2022/03/14 21:29:02;;;;;;;91.90;45.00;;;;;;;7.49;35.99;100498.65;233259;1219;139436;-63
2022/03/14 21:34:08;;;;;;;99.10;48.50;;;;;;;7.20;36.61;100498.87;233182;1217;139073;-62
2022/03/14 21:39:12;;;;;;;114.70;54.10;;;;;;;6.94;37.12;100498.79;233134;1219;139064;-62
2022/03/14 21:44:15;;;;;;;109.80;50.10;;;;;;;6.74;37.56;100498.54;233076;1219;139831;-62
2022/03/14 21:49:19;;;;;;;111.00;53.00;;;;;;;6.55;38.00;100497.73;232957;1219;139464;-63
2022/03/14 21:54:22;;;;;;;115.60;51.10;;;;;;;6.43;38.59;100501.88;233068;1218;139308;-63
2022/03/14 21:59:26;;;;;;;92.30;40.60;;;;;;;6.31;38.66;100508.65;233095;1219;139334;-62
2022/03/14 22:04:29;;;;;;;102.40;46.60;;;;;;;6.24;38.85;100505.45;233209;1220;139220;-63
2022/03/14 22:09:32;;;;;;;105.30;50.30;;;;;;;6.17;39.19;100505.08;233066;1218;139227;-63
2022/03/14 22:14:37;;;;;;;101.00;49.00;;;;;;;6.13;39.74;100506.56;233090;1220;139888;-63
2022/03/14 22:19:40;;;;;;;95.30;49.00;;;;;;;6.05;39.98;100508.13;233181;1219;139226;-62
2022/03/14 22:24:45;;;;;;;113.70;52.80;;;;;;;5.95;39.96;100507.45;233166;1219;139956;-65
2022/03/14 22:29:48;;;;;;;113.10;54.10;;;;;;;5.87;40.51;100517.23;233098;1219;139832;-63
2022/03/14 22:34:51;;;;;;;112.00;57.10;;;;;;;5.80;40.56;100518.61;233226;1219;138797;-63
2022/03/14 22:39:55;;;;;;;118.90;56.90;;;;;;;5.74;40.81;100526.84;233110;1218;139081;-63
2022/03/14 22:44:58;;;;;;;103.90;51.30;;;;;;;5.69;41.04;100531.85;233090;1219;139706;-63